Terminal Aerodrome Forecast
Issued by NWS Charleston, WV

Current Version | Previous Version | Graphics & Text | Print | Product List | Glossary On
Versions: 1 2 3 4 5 6 7 8 9 10 11 12 13 14 15 16 17
081
FTUS41 KRLX 212331
TAFPKB
TAF
KPKB 212331Z 2200/2224 VRB04KT P6SM SCT250
     FM220200 00000KT P6SM BKN150
     FM221700 05004KT P6SM SCT150=

USA.gov is the U.S. government's official web portal to all federal, state and local government web resources and services.